Time;durP1;ratioP1;P1;durP2;ratioP2;P2;SDS_P1;SDS_P2;PMS_P1;PMS_P2;Temp;Humidity;BMP_temperature;BMP_pressure;BME280_temperature;BME280_humidity;BME280_pressure;Samples;Min_cycle;Max_cycle;Signal;HPM_P1;HPM_P2
2022/04/12 00:00:57;;;;;;;5.93;3.03;;;;;;;;;;5046837;28;20522;-83
2022/04/12 00:03:22;;;;;;;5.68;2.97;;;10.40;92.30;;;;;;5043389;28;20029;-81
2022/04/12 00:05:48;;;;;;;5.30;2.70;;;10.30;92.60;;;;;;5023646;28;20027;-84
2022/04/12 00:08:14;;;;;;;5.82;2.75;;;;;;;;;;5038154;28;20040;-83
2022/04/12 00:10:40;;;;;;;5.97;2.47;;;;;;;;;;5039260;28;20029;-80
2022/04/12 00:13:06;;;;;;;5.82;2.40;;;;;;;;;;5019702;28;20021;-81
2022/04/12 00:15:32;;;;;;;4.65;2.20;;;10.00;96.70;;;;;;5036271;28;20020;-82
2022/04/12 00:20:43;;;;;;;5.60;2.45;;;9.90;97.60;;;;;;5040401;28;20430;-82
2022/04/12 00:23:11;;;;;;;4.93;2.95;;;11.10;98.10;;;;;;5033999;28;20032;-82
2022/04/12 00:25:37;;;;;;;6.65;2.90;;;;;;;;;;5035994;28;20025;-83
2022/04/12 00:28:03;;;;;;;5.07;2.83;;;9.80;98.90;;;;;;5033871;28;20060;-82
2022/04/12 00:30:29;;;;;;;7.25;2.92;;;9.80;99.20;;;;;;5044109;28;20496;-84
2022/04/12 00:32:55;;;;;;;6.78;2.60;;;9.80;99.40;;;;;;5026622;28;20025;-83
2022/04/12 00:35:22;;;;;;;5.28;2.80;;;9.80;99.60;;;;;;5021122;28;20037;-83
2022/04/12 00:37:50;;;;;;;5.20;2.78;;;9.70;99.80;;;;;;5033423;28;20036;-85
2022/04/12 00:40:18;;;;;;;5.10;2.90;;;9.70;99.90;;;;;;5023581;28;20089;-85
2022/04/12 00:42:47;;;;;;;6.70;2.90;;;9.70;99.90;;;;;;5020530;28;20037;-81
2022/04/12 00:45:13;;;;;;;5.80;2.63;;;9.70;99.90;;;;;;5035996;28;20029;-82
2022/04/12 00:47:39;;;;;;;7.47;3.17;;;9.70;99.90;;;;;;5039716;28;20025;-81
2022/04/12 00:50:07;;;;;;;6.65;2.97;;;9.60;99.90;;;;;;5029090;28;20036;-84
2022/04/12 00:52:36;;;;;;;5.60;2.55;;;9.60;99.90;;;;;;5025183;28;20088;-83
2022/04/12 00:55:04;;;;;;;6.75;2.83;;;9.50;99.90;;;;;;5042499;28;20033;-79
2022/04/12 00:57:32;;;;;;;6.03;2.90;;;9.50;99.90;;;;;;5047202;28;20024;-79
2022/04/12 00:59:59;;;;;;;7.53;3.20;;;9.50;99.90;;;;;;5042349;28;20037;-83
2022/04/12 01:02:25;;;;;;;5.80;2.83;;;9.50;99.90;;;;;;5041797;28;20025;-84
2022/04/12 01:04:51;;;;;;;7.65;2.90;;;;;;;;;;5030881;28;20103;-85
2022/04/12 01:07:17;;;;;;;8.20;2.85;;;9.50;99.90;;;;;;5026858;28;20188;-85
2022/04/12 01:09:43;;;;;;;7.00;3.22;;;9.40;99.90;;;;;;5041297;28;20032;-84
2022/04/12 01:12:10;;;;;;;8.02;3.03;;;9.40;99.90;;;;;;5045039;28;20029;-82
2022/04/12 01:14:37;;;;;;;7.28;2.90;;;9.40;99.90;;;;;;5028425;28;20025;-82
2022/04/12 01:17:05;;;;;;;6.13;2.70;;;9.40;99.90;;;;;;5043790;28;20028;-84
2022/04/12 01:19:31;;;;;;;10.38;3.20;;;9.40;99.90;;;;;;5022061;28;20025;-84
2022/04/12 01:22:07;;;;;;;7.05;3.40;;;;;;;;;;5051836;28;20033;-83
2022/04/12 01:24:34;;;;;;;6.38;2.85;;;9.40;99.90;;;;;;5045310;28;20024;-85
2022/04/12 01:27:00;;;;;;;4.88;2.60;;;9.30;99.90;;;;;;5049728;28;20033;-81
2022/04/12 01:29:30;;;;;;;7.30;3.05;;;9.30;99.90;;;;;;5052215;28;20039;-86
2022/04/12 01:31:56;;;;;;;5.95;3.08;;;9.20;99.90;;;;;;5040387;28;20513;-82
2022/04/12 01:34:21;;;;;;;5.70;3.05;;;9.20;99.90;;;;;;5041475;28;20030;-85
2022/04/12 01:36:47;;;;;;;4.97;2.90;;;;;;;;;;5027534;28;20029;-82
2022/04/12 01:39:13;;;;;;;5.63;3.00;;;9.20;99.90;;;;;;5050298;28;20049;-84
2022/04/12 01:41:39;;;;;;;6.85;3.15;;;;;;;;;;5056876;28;20111;-84
2022/04/12 01:44:05;;;;;;;10.13;3.40;;;9.20;99.90;;;;;;5053121;28;20033;-82
2022/04/12 01:46:31;;;;;;;5.18;2.92;;;9.20;99.90;;;;;;5047793;28;20024;-83
2022/04/12 01:48:57;;;;;;;5.15;2.58;;;;;;;;;;5039523;28;20462;-83
2022/04/12 01:51:23;;;;;;;5.30;2.95;;;;;;;;;;5053706;28;20037;-81
2022/04/12 01:53:48;;;;;;;6.00;2.90;;;9.10;99.90;;;;;;5053532;28;20029;-87
2022/04/12 01:56:14;;;;;;;5.85;3.00;;;9.10;99.90;;;;;;5020408;28;20032;-84
2022/04/12 01:58:42;;;;;;;5.57;3.13;;;9.10;99.90;;;;;;5030574;28;20057;-83
2022/04/12 02:01:08;;;;;;;6.38;2.92;;;;;;;;;;5043303;28;20033;-77
2022/04/12 02:03:34;;;;;;;4.25;2.67;;;9.00;99.90;;;;;;5018769;28;20025;-86
2022/04/12 02:06:00;;;;;;;6.00;2.83;;;;;;;;;;5047063;28;20029;-83
2022/04/12 02:08:26;;;;;;;8.07;3.13;;;;;;;;;;5045519;28;20057;-84
2022/04/12 02:10:52;;;;;;;6.75;3.47;;;8.90;99.90;;;;;;5053469;28;20075;-84
2022/04/12 02:13:17;;;;;;;6.63;2.90;;;8.90;99.90;;;;;;5015412;28;20057;-83
2022/04/12 02:15:43;;;;;;;7.53;2.92;;;8.90;99.90;;;;;;5034066;28;20093;-83
2022/04/12 02:18:09;;;;;;;6.13;3.50;;;8.90;99.90;;;;;;5038173;28;20052;-83
2022/04/12 02:20:34;;;;;;;6.43;3.63;;;9.30;99.90;;;;;;5048401;28;20053;-88
2022/04/12 02:23:00;;;;;;;11.00;4.55;;;9.00;99.90;;;;;;5034593;28;20048;-84
2022/04/12 02:25:26;;;;;;;10.18;3.92;;;9.00;99.90;;;;;;5043926;28;20029;-84
2022/04/12 02:27:51;;;;;;;8.68;4.70;;;8.90;99.90;;;;;;5032468;28;20517;-84
2022/04/12 02:30:17;;;;;;;12.48;5.43;;;8.90;99.90;;;;;;5033039;28;20059;-86
2022/04/12 02:32:43;;;;;;;7.25;3.70;;;10.40;99.90;;;;;;5033363;28;20055;-83
2022/04/12 02:35:09;;;;;;;8.30;3.70;;;10.60;99.90;;;;;;5031746;28;20044;-83
2022/04/12 02:37:35;;;;;;;9.00;4.00;;;;;;;;;;5047533;28;20491;-83
2022/04/12 02:40:02;;;;;;;8.35;3.47;;;8.90;99.90;;;;;;5030265;28;20021;-81
2022/04/12 02:42:28;;;;;;;6.18;3.22;;;8.90;99.90;;;;;;5032791;28;20036;-81
2022/04/12 02:44:53;;;;;;;5.97;3.22;;;8.90;99.90;;;;;;5062010;28;20036;-84
2022/04/12 02:47:19;;;;;;;5.43;3.00;;;8.80;99.90;;;;;;5039887;28;20040;-84
2022/04/12 02:49:45;;;;;;;6.00;3.20;;;;;;;;;;5061173;28;20045;-83
2022/04/12 02:52:10;;;;;;;7.50;3.00;;;8.80;99.90;;;;;;5058961;28;20107;-84
2022/04/12 02:54:36;;;;;;;5.82;3.17;;;;;;;;;;5058099;28;20029;-81
2022/04/12 02:57:02;;;;;;;6.28;2.95;;;8.70;99.90;;;;;;5050649;28;20159;-85
2022/04/12 02:59:28;;;;;;;6.32;3.33;;;8.70;99.90;;;;;;5031274;28;20116;-84
2022/04/12 03:01:53;;;;;;;6.13;2.70;;;8.70;99.90;;;;;;5024359;28;20025;-83
2022/04/12 03:04:19;;;;;;;5.88;3.35;;;7.70;99.90;;;;;;5050446;28;20037;-82
2022/04/12 03:06:45;;;;;;;7.70;2.97;;;8.60;99.90;;;;;;5036067;28;20064;-85
2022/04/12 03:09:11;;;;;;;6.25;2.85;;;10.20;99.90;;;;;;5048235;28;20103;-83
2022/04/12 03:11:38;;;;;;;10.35;3.60;;;8.50;99.90;;;;;;5029403;28;20048;-83
2022/04/12 03:14:05;;;;;;;6.70;3.30;;;;;;;;;;5047560;28;20083;-81
2022/04/12 03:16:30;;;;;;;7.18;3.08;;;8.50;99.90;;;;;;5047589;28;20081;-85
2022/04/12 03:18:56;;;;;;;5.93;2.90;;;;;;;;;;5048063;28;20067;-83
2022/04/12 03:21:22;;;;;;;7.43;3.40;;;;;;;;;;5054462;28;20045;-86
2022/04/12 03:23:48;;;;;;;5.28;3.10;;;;;;;;;;5049036;28;20104;-86
2022/04/12 03:26:14;;;;;;;8.55;2.83;;;;;;;;;;5040200;28;20025;-84
2022/04/12 03:28:40;;;;;;;7.25;3.42;;;;;;;;;;5057265;28;20029;-84
2022/04/12 03:31:06;;;;;;;6.15;3.20;;;;;;;;;;5058459;28;20032;-84
2022/04/12 03:33:32;;;;;;;7.75;3.38;;;;;;;;;;5041268;28;20075;-84
2022/04/12 03:35:57;;;;;;;5.28;3.28;;;8.40;99.90;;;;;;5058840;28;20447;-84
2022/04/12 03:38:23;;;;;;;5.78;3.42;;;9.00;99.90;;;;;;5062828;28;20031;-83
2022/04/12 03:40:49;;;;;;;6.68;3.55;;;8.40;99.90;;;;;;5040709;28;20029;-84
2022/04/12 03:43:14;;;;;;;8.35;4.57;;;8.40;99.90;;;;;;5058581;28;20079;-84
2022/04/12 03:45:40;;;;;;;8.93;3.90;;;;;;;;;;5045357;28;20037;-83
2022/04/12 03:48:07;;;;;;;7.95;3.92;;;;;;;;;;5055554;28;20033;-84
2022/04/12 03:50:36;;;;;;;5.53;3.45;;;;;;;;;;5054917;28;20036;-85
2022/04/12 03:53:02;;;;;;;7.72;3.40;;;8.40;99.90;;;;;;5056756;28;20248;-87
2022/04/12 03:55:31;;;;;;;7.63;3.40;;;;;;;;;;5053053;28;20032;-83
2022/04/12 03:58:02;;;;;;;5.55;3.10;;;8.50;99.90;;;;;;5058847;28;20025;-85
2022/04/12 04:00:29;;;;;;;6.22;3.40;;;8.50;99.90;;;;;;5044472;28;20028;-85
2022/04/12 04:02:55;;;;;;;4.80;3.05;;;;;;;;;;5064507;28;20108;-87
2022/04/12 04:05:22;;;;;;;6.82;3.28;;;8.50;99.90;;;;;;5057365;28;20025;-85
2022/04/12 04:07:47;;;;;;;7.72;3.72;;;8.50;99.90;;;;;;5039567;28;20033;-85
2022/04/12 04:10:13;;;;;;;6.65;3.60;;;8.60;99.90;;;;;;5048839;28;20025;-84
2022/04/12 04:12:39;;;;;;;7.50;3.60;;;;;;;;;;5047117;28;20017;-88
2022/04/12 04:15:11;;;;;;;10.00;3.60;;;8.60;99.90;;;;;;5034440;28;20028;-83
2022/04/12 04:17:38;;;;;;;6.70;3.80;;;;;;;;;;5054391;28;20029;-85
2022/04/12 04:20:04;;;;;;;6.13;3.58;;;;;;;;;;5030111;28;20056;-84
2022/04/12 04:22:29;;;;;;;6.00;3.00;;;8.70;99.90;;;;;;5048720;28;20078;-82
2022/04/12 04:24:55;;;;;;;7.68;3.10;;;;;;;;;;5033806;28;20033;-84
2022/04/12 04:27:28;;;;;;;6.43;3.08;;;;;;;;;;5047134;28;20052;-84
2022/04/12 04:29:55;;;;;;;7.05;3.38;;;;;;;;;;5046281;28;20043;-83
2022/04/12 04:32:21;;;;;;;5.63;3.22;;;;;;;;;;5062340;28;20012;-80
2022/04/12 04:34:47;;;;;;;8.98;4.20;;;;;;;;;;5050651;28;20117;-82
2022/04/12 04:37:13;;;;;;;5.25;3.38;;;;;;;;;;5066445;28;20045;-83
2022/04/12 04:39:39;;;;;;;6.63;3.80;;;;;;;;;;5060610;28;20055;-82
2022/04/12 04:42:05;;;;;;;7.57;3.90;;;8.80;99.90;;;;;;5049026;28;20734;-84
2022/04/12 04:44:32;;;;;;;6.70;3.90;;;8.70;99.90;;;;;;5044460;28;20479;-81
2022/04/12 04:46:58;;;;;;;6.70;3.45;;;;;;;;;;5026191;28;20031;-82
2022/04/12 04:49:24;;;;;;;4.95;3.15;;;;;;;;;;5046602;28;20065;-81
2022/04/12 04:51:49;;;;;;;7.30;3.47;;;8.60;99.90;;;;;;5033504;28;20388;-84
2022/04/12 04:54:15;;;;;;;7.65;3.72;;;;;;;;;;5044539;28;20606;-83
2022/04/12 04:56:41;;;;;;;7.32;3.40;;;;;;;;;;5049748;28;20033;-84
2022/04/12 04:59:10;;;;;;;6.38;3.20;;;;;;;;;;5051992;28;20029;-81
2022/04/12 05:01:36;;;;;;;5.90;3.08;;;;;;;;;;5052543;28;20087;-84
2022/04/12 05:04:02;;;;;;;6.20;3.55;;;8.60;99.90;;;;;;5056360;28;20028;-82
2022/04/12 05:06:27;;;;;;;10.05;4.10;;;8.60;99.90;;;;;;5054252;28;20041;-86
2022/04/12 05:08:53;;;;;;;10.32;3.72;;;;;;;;;;5036008;28;20072;-83
2022/04/12 05:11:19;;;;;;;10.63;3.13;;;;;;;;;;5034733;28;20537;-86
2022/04/12 05:13:45;;;;;;;8.55;3.88;;;8.70;99.90;;;;;;5032182;28;20025;-86
2022/04/12 05:16:10;;;;;;;8.38;3.80;;;8.70;99.90;;;;;;5055068;28;20052;-86
2022/04/12 05:18:36;;;;;;;6.97;3.50;;;9.20;99.90;;;;;;5055121;28;20037;-83
2022/04/12 05:21:02;;;;;;;5.35;3.45;;;8.70;99.90;;;;;;5053805;28;20039;-84
2022/04/12 05:23:28;;;;;;;7.07;3.58;;;;;;;;;;5071619;28;20033;-85
2022/04/12 05:25:54;;;;;;;10.27;3.90;;;8.70;99.90;;;;;;5064071;28;20049;-82
2022/04/12 05:28:21;;;;;;;7.75;3.95;;;8.70;99.90;;;;;;5063661;28;20020;-84
2022/04/12 05:30:47;;;;;;;7.60;3.65;;;;;;;;;;5055619;28;20040;-86
2022/04/12 05:33:12;;;;;;;8.35;3.88;;;8.70;99.90;;;;;;5055177;28;20123;-83
2022/04/12 05:35:38;;;;;;;14.75;4.18;;;8.80;99.90;;;;;;5047169;28;20052;-87
2022/04/12 05:38:06;;;;;;;7.20;3.58;;;;;;;;;;5055346;28;20059;-85
2022/04/12 05:40:33;;;;;;;7.43;4.15;;;8.90;99.90;;;;;;5059670;28;20035;-83
2022/04/12 05:42:59;;;;;;;6.95;3.83;;;8.90;99.90;;;;;;5060005;28;20029;-83
2022/04/12 05:45:25;;;;;;;8.35;3.65;;;8.90;99.90;;;;;;5033463;28;20534;-84
2022/04/12 05:47:54;;;;;;;6.90;3.58;;;9.00;99.90;;;;;;5036818;28;20153;-85
2022/04/12 05:50:21;;;;;;;6.78;3.65;;;9.00;99.90;;;;;;5032388;28;20477;-87
2022/04/12 05:52:47;;;;;;;7.18;3.50;;;9.50;99.90;;;;;;5028451;28;20021;-82
2022/04/12 05:55:15;;;;;;;10.43;3.75;;;9.20;99.90;;;;;;5032524;28;20040;-86
2022/04/12 05:57:52;;;;;;;7.63;3.70;;;9.20;99.90;;;;;;5037436;28;20107;-87
2022/04/12 06:00:22;;;;;;;6.10;3.33;;;9.40;99.90;;;;;;5053155;28;20029;-86
2022/04/12 06:02:49;;;;;;;9.40;3.92;;;9.50;99.90;;;;;;5037998;28;20071;-84
2022/04/12 06:05:15;;;;;;;8.70;3.65;;;;;;;;;;5049339;28;23302;-85
2022/04/12 06:07:42;;;;;;;10.45;3.72;;;;;;;;;;5055538;28;20021;-86
2022/04/12 06:10:12;;;;;;;7.65;3.22;;;;;;;;;;5054822;28;20041;-81
2022/04/12 06:12:38;;;;;;;7.88;3.13;;;;;;;;;;5054404;28;20135;-86
2022/04/12 06:15:05;;;;;;;6.63;2.80;;;;;;;;;;5059064;28;20059;-86
2022/04/12 06:17:33;;;;;;;7.13;2.72;;;10.10;99.90;;;;;;5060262;28;20056;-86
2022/04/12 06:20:28;;;;;;;8.40;3.33;;;10.20;99.90;;;;;;5057147;28;20032;-81
2022/04/12 06:22:53;;;;;;;8.02;3.53;;;10.40;99.90;;;;;;5050216;28;20032;-85
2022/04/12 06:25:20;;;;;;;10.38;3.42;;;;;;;;;;5041350;28;20030;-80
2022/04/12 06:27:50;;;;;;;13.85;3.53;;;10.50;99.90;;;;;;5061961;28;20033;-85
2022/04/12 06:30:18;;;;;;;9.23;3.28;;;10.60;99.90;;;;;;5071985;28;20013;-85
2022/04/12 06:32:45;;;;;;;5.07;2.60;;;10.80;99.90;;;;;;5066269;28;20024;-84
2022/04/12 06:35:12;;;;;;;9.40;2.65;;;10.90;99.90;;;;;;5065892;28;20048;-82
2022/04/12 06:37:39;;;;;;;8.60;2.80;;;11.00;99.90;;;;;;5065319;28;20029;-85
2022/04/12 06:40:10;;;;;;;6.53;2.83;;;13.40;99.90;;;;;;5067558;28;20060;-83
2022/04/12 06:42:36;;;;;;;5.30;2.40;;;;;;;;;;5040063;28;20029;-84
2022/04/12 06:45:04;;;;;;;6.78;2.35;;;11.40;99.90;;;;;;5036937;28;20045;-83
2022/04/12 06:47:29;;;;;;;6.05;2.85;;;11.50;99.90;;;;;;5035503;28;20043;-84
2022/04/12 06:49:56;;;;;;;6.80;2.50;;;;;;;;;;5058454;28;20093;-86
2022/04/12 06:52:22;;;;;;;4.55;2.70;;;11.90;99.90;;;;;;5057506;28;20049;-83
2022/04/12 06:54:49;;;;;;;5.38;2.42;;;11.80;99.90;;;;;;5039306;28;20037;-83
2022/04/12 06:57:15;;;;;;;5.40;2.88;;;12.10;99.10;;;;;;5036876;28;20027;-83
2022/04/12 06:59:41;;;;;;;4.57;2.58;;;;;;;;;;5069729;28;20036;-85
2022/04/12 07:02:07;;;;;;;5.47;2.13;;;;;;;;;;5080297;28;20024;-82
2022/04/12 07:04:33;;;;;;;5.00;2.28;;;;;;;;;;5074890;28;20098;-84
2022/04/12 07:07:00;;;;;;;5.60;2.97;;;;;;;;;;5062054;28;20063;-85
2022/04/12 07:09:29;;;;;;;7.35;2.42;;;13.80;98.40;;;;;;5046406;28;20037;-84
2022/04/12 07:11:57;;;;;;;12.30;3.15;;;12.50;97.60;;;;;;5052964;28;20036;-85
2022/04/12 07:14:24;;;;;;;5.72;2.58;;;14.40;98.20;;;;;;5032608;28;20052;-85
2022/04/12 07:16:50;;;;;;;4.32;2.22;;;;;;;;;;5050467;28;20037;-83
2022/04/12 07:19:16;;;;;;;5.55;2.63;;;;;;;;;;5050172;28;20017;-83
2022/04/12 07:21:43;;;;;;;8.60;2.65;;;;;;;;;;5037335;28;20040;-81
2022/04/12 07:24:09;;;;;;;4.18;2.60;;;12.70;96.90;;;;;;5031847;28;20024;-83
2022/04/12 07:26:36;;;;;;;5.72;2.83;;;12.90;96.40;;;;;;5054410;28;20219;-83
2022/04/12 07:29:03;;;;;;;5.35;2.40;;;13.00;96.00;;;;;;5044218;28;20075;-86
2022/04/12 07:31:28;;;;;;;4.53;2.28;;;13.00;96.20;;;;;;5035999;28;20063;-84
2022/04/12 07:33:54;;;;;;;7.07;2.22;;;13.40;95.70;;;;;;5034936;28;20517;-86
2022/04/12 07:36:20;;;;;;;5.03;2.20;;;13.30;94.80;;;;;;5058493;28;20064;-85
2022/04/12 07:38:48;;;;;;;5.18;2.28;;;14.50;95.20;;;;;;5032356;28;20032;-87
2022/04/12 07:41:14;;;;;;;5.38;2.10;;;13.30;94.60;;;;;;5047307;28;20068;-85
2022/04/12 07:43:41;;;;;;;7.15;2.38;;;13.50;94.40;;;;;;5033512;28;20037;-86
2022/04/12 07:46:07;;;;;;;5.13;2.47;;;14.30;94.80;;;;;;5050302;28;20029;-86
2022/04/12 07:48:32;;;;;;;10.45;2.80;;;13.60;93.80;;;;;;5046460;28;20501;-87
2022/04/12 07:50:58;;;;;;;6.68;2.40;;;13.70;93.80;;;;;;5055292;28;20495;-84
2022/04/12 07:53:23;;;;;;;5.60;2.10;;;13.70;94.10;;;;;;5053232;28;20029;-85
2022/04/12 07:55:49;;;;;;;5.22;2.17;;;;;;;;;;5055235;28;20048;-87
2022/04/12 07:58:15;;;;;;;3.55;1.98;;;13.80;92.50;;;;;;5018570;28;20032;-85
2022/04/12 08:00:41;;;;;;;4.05;2.10;;;14.00;92.50;;;;;;5053269;28;20566;-84
2022/04/12 08:03:07;;;;;;;5.35;2.22;;;14.00;92.70;;;;;;5033380;28;20138;-81
2022/04/12 08:05:34;;;;;;;3.65;1.90;;;14.20;92.80;;;;;;5031894;28;20032;-85
2022/04/12 08:08:00;;;;;;;3.90;2.00;;;;;;;;;;5056711;28;20031;-85
2022/04/12 08:10:26;;;;;;;7.55;3.00;;;14.60;92.10;;;;;;5046872;28;20084;-82
2022/04/12 08:12:56;;;;;;;4.55;2.30;;;;;;;;;;5055051;28;20052;-81
2022/04/12 08:15:22;;;;;;;4.68;2.17;;;14.90;90.40;;;;;;5032885;28;20056;-86
2022/04/12 08:17:48;;;;;;;6.22;2.40;;;14.90;90.40;;;;;;5027951;28;20021;-84
2022/04/12 08:20:14;;;;;;;4.38;2.30;;;;;;;;;;5034902;28;20025;-82
2022/04/12 08:22:41;;;;;;;7.47;2.60;;;15.30;89.60;;;;;;5064416;28;20025;-84
2022/04/12 08:25:08;;;;;;;4.00;1.98;;;15.70;89.00;;;;;;5053450;28;20029;-80
2022/04/12 08:27:34;;;;;;;3.80;1.95;;;15.70;87.00;;;;;;5048811;28;20025;-85
2022/04/12 08:30:00;;;;;;;6.47;2.95;;;15.90;87.50;;;;;;5057987;28;20028;-86
2022/04/12 08:32:26;;;;;;;3.85;2.03;;;;;;;;;;5054814;28;20325;-82
2022/04/12 08:34:53;;;;;;;3.35;2.00;;;16.30;86.00;;;;;;5059437;28;20047;-84
2022/04/12 08:37:19;;;;;;;4.97;2.20;;;16.40;83.10;;;;;;5039719;28;20024;-81
2022/04/12 08:39:45;;;;;;;4.07;2.00;;;;;;;;;;5060185;28;20025;-83
2022/04/12 08:42:11;;;;;;;4.10;1.92;;;16.50;81.90;;;;;;5057178;28;20029;-81
2022/04/12 08:44:39;;;;;;;3.67;1.70;;;;;;;;;;5034876;28;20033;-83
2022/04/12 08:47:07;;;;;;;3.25;1.90;;;16.80;80.90;;;;;;5036289;28;20499;-85
2022/04/12 08:49:35;;;;;;;5.45;1.98;;;17.10;80.50;;;;;;5041508;28;20063;-84
2022/04/12 08:52:02;;;;;;;3.00;1.65;;;17.10;80.40;;;;;;5056325;28;20021;-87
2022/04/12 08:54:28;;;;;;;3.60;1.80;;;17.20;80.00;;;;;;5041157;28;20040;-85
2022/04/12 08:56:54;;;;;;;3.55;1.60;;;17.30;79.30;;;;;;5062512;28;20029;-85
2022/04/12 08:59:20;;;;;;;4.78;1.92;;;17.60;79.90;;;;;;5059362;28;20033;-84
2022/04/12 09:01:46;;;;;;;2.97;1.95;;;;;;;;;;5065870;28;20115;-84
2022/04/12 09:04:13;;;;;;;3.55;1.60;;;;;;;;;;5036376;28;20036;-83
2022/04/12 09:06:53;;;;;;;4.53;2.13;;;17.90;77.40;;;;;;5034198;28;20047;-83
2022/04/12 09:09:21;;;;;;;4.68;2.05;;;17.90;77.80;;;;;;5043974;28;20394;-84
2022/04/12 09:12:03;;;;;;;3.45;1.75;;;18.20;76.00;;;;;;5044589;28;20036;-84
2022/04/12 09:14:36;;;;;;;4.68;1.70;;;18.20;76.50;;;;;;5042425;28;20028;-87
2022/04/12 09:17:02;;;;;;;4.45;1.70;;;;;;;;;;5059330;28;20085;-84
2022/04/12 09:19:38;;;;;;;3.25;1.80;;;18.70;75.60;;;;;;5057182;28;20036;-87
2022/04/12 09:22:11;;;;;;;3.67;1.70;;;;;;;;;;5044593;28;20029;-83
2022/04/12 09:24:45;;;;;;;2.80;1.50;;;19.00;74.20;;;;;;5065820;28;20023;-83
2022/04/12 09:27:13;;;;;;;4.07;1.90;;;19.10;73.00;;;;;;5047908;28;20028;-81
2022/04/12 09:29:45;;;;;;;4.25;1.73;;;19.20;72.70;;;;;;5038599;28;20029;-85
2022/04/12 09:32:13;;;;;;;4.32;2.00;;;;;;;;;;5048936;28;20129;-87
2022/04/12 09:34:40;;;;;;;3.22;1.70;;;19.70;70.60;;;;;;5061487;28;20017;-85
2022/04/12 09:37:39;;;;;;;3.42;1.48;;;19.60;69.70;;;;;;5052158;28;20013;-84
2022/04/12 09:40:07;;;;;;;5.68;1.90;;;19.60;69.50;;;;;;5062674;28;20031;-86
2022/04/12 09:42:42;;;;;;;2.83;1.58;;;;;;;;;;5069320;28;20064;-82
2022/04/12 09:45:29;;;;;;;3.08;1.70;;;19.80;68.40;;;;;;5067559;28;20029;-80
2022/04/12 09:48:04;;;;;;;2.72;1.85;;;19.90;68.20;;;;;;5055704;28;20444;-83
2022/04/12 09:50:31;;;;;;;3.30;1.35;;;20.10;67.80;;;;;;5050900;28;20063;-84
2022/04/12 09:53:03;;;;;;;3.42;1.70;;;20.20;67.50;;;;;;5058188;28;20021;-84
2022/04/12 09:55:37;;;;;;;4.15;1.73;;;20.40;67.20;;;;;;5055969;28;20017;-86
2022/04/12 09:58:08;;;;;;;5.60;1.90;;;20.50;66.60;;;;;;5045687;28;20056;-86
2022/04/12 10:00:35;;;;;;;2.90;1.70;;;20.50;66.60;;;;;;5040146;28;20063;-82
2022/04/12 10:03:03;;;;;;;4.20;1.77;;;20.60;67.00;;;;;;5052978;28;20086;-83
2022/04/12 10:05:30;;;;;;;7.72;2.00;;;;;;;;;;5062613;28;20037;-81
2022/04/12 10:07:59;;;;;;;3.40;1.77;;;20.60;66.00;;;;;;5058411;28;20390;-82
2022/04/12 10:10:25;;;;;;;2.60;1.40;;;;;;;;;;5060759;28;20029;-83
2022/04/12 10:12:58;;;;;;;6.18;2.10;;;20.80;64.50;;;;;;5057890;28;20033;-84
2022/04/12 10:15:25;;;;;;;4.07;1.75;;;20.90;63.80;;;;;;5040416;28;20045;-83
2022/04/12 10:17:52;;;;;;;3.70;1.92;;;;;;;;;;5067768;28;20518;-85
2022/04/12 10:20:18;;;;;;;2.55;1.50;;;21.20;62.90;;;;;;5043765;28;20054;-88
2022/04/12 10:22:45;;;;;;;8.57;2.00;;;;;;;;;;5062478;28;20032;-86
2022/04/12 10:25:15;;;;;;;2.47;1.30;;;21.40;61.90;;;;;;5058953;28;20040;-87
2022/04/12 10:27:50;;;;;;;4.68;1.58;;;21.50;61.80;;;;;;5047925;28;20025;-83
2022/04/12 10:30:21;;;;;;;3.53;1.65;;;;;;;;;;5041292;28;20048;-87
2022/04/12 10:33:15;;;;;;;3.03;1.42;;;21.70;61.40;;;;;;5064484;28;20044;-87
2022/04/12 10:35:51;;;;;;;2.92;1.50;;;21.70;61.10;;;;;;5053415;28;20052;-87
2022/04/12 10:38:22;;;;;;;5.28;1.90;;;21.80;59.80;;;;;;5064153;28;20031;-88
2022/04/12 10:40:51;;;;;;;4.35;1.92;;;21.90;60.00;;;;;;5061047;28;20059;-85
2022/04/12 10:43:22;;;;;;;2.70;1.48;;;22.00;59.90;;;;;;5047513;28;20116;-87
2022/04/12 10:45:50;;;;;;;4.85;1.73;;;22.00;59.50;;;;;;5067753;28;20605;-86
2022/04/12 10:48:22;;;;;;;4.30;2.22;;;22.20;60.10;;;;;;5054206;28;20033;-86
2022/04/12 10:50:51;;;;;;;4.40;1.90;;;22.20;59.60;;;;;;5064217;28;20040;-89
2022/04/12 10:53:39;;;;;;;8.27;2.13;;;22.20;61.10;;;;;;5065818;28;20021;-87
2022/04/12 10:56:13;;;;;;;4.28;2.00;;;22.20;61.20;;;;;;5061820;28;20033;-86
2022/04/12 10:58:40;;;;;;;3.78;1.90;;;22.00;62.80;;;;;;5061821;28;20029;-86
2022/04/12 11:01:10;;;;;;;6.15;2.25;;;22.00;63.40;;;;;;5061900;28;20080;-85
2022/04/12 11:03:41;;;;;;;;;;;22.80;64.40;;;;;;5061980;28;20029;-85
2022/04/12 11:06:11;;;;;;;6.22;2.28;;;22.00;64.30;;;;;;5048098;28;19936;-85
2022/04/12 11:08:37;;;;;;;6.70;2.17;;;;;;;;;;5060927;28;20102;-87
2022/04/12 11:11:06;;;;;;;3.05;2.13;;;;;;;;;;5060170;28;20065;-83
2022/04/12 11:13:34;;;;;;;4.68;2.58;;;21.70;65.20;;;;;;5065168;28;20104;-82
2022/04/12 11:16:08;;;;;;;3.55;2.22;;;21.40;66.10;;;;;;5039543;28;20024;-85
2022/04/12 11:18:51;;;;;;;6.22;2.42;;;21.50;66.30;;;;;;5051428;28;20033;-86
2022/04/12 11:21:19;;;;;;;5.07;2.17;;;21.60;66.10;;;;;;5050995;28;20047;-85
2022/04/12 11:23:48;;;;;;;4.72;2.67;;;21.60;67.00;;;;;;5031299;28;20033;-85
2022/04/12 11:26:35;;;;;;;4.35;2.15;;;21.60;66.00;;;;;;5032916;28;20060;-84
2022/04/12 11:29:02;;;;;;;4.75;2.15;;;;;;;;;;5054042;28;20028;-86
2022/04/12 11:31:28;;;;;;;7.97;2.30;;;;;;;;;;5044592;28;20036;-85
2022/04/12 11:33:54;;;;;;;4.35;1.75;;;;;;;;;;5041059;28;20128;-83
2022/04/12 11:36:20;;;;;;;3.42;2.00;;;;;;;;;;5034163;28;20021;-84
2022/04/12 11:38:47;;;;;;;4.82;1.80;;;21.70;65.40;;;;;;5064262;28;20039;-85
2022/04/12 11:41:13;;;;;;;4.72;1.83;;;;;;;;;;5050210;28;20032;-86
2022/04/12 11:43:39;;;;;;;5.25;2.28;;;;;;;;;;5067034;28;20025;-84
2022/04/12 11:46:05;;;;;;;4.60;2.38;;;;;;;;;;5065097;28;20437;-87
2022/04/12 11:48:32;;;;;;;5.55;2.15;;;21.60;63.70;;;;;;5061284;28;20395;-86
2022/04/12 11:51:06;;;;;;;4.40;1.90;;;21.50;62.80;;;;;;5062099;28;20041;-83
2022/04/12 11:53:32;;;;;;;3.17;1.83;;;;;;;;;;5044446;28;20550;-87
2022/04/12 11:56:03;;;;;;;8.82;1.77;;;21.60;62.70;;;;;;5060916;28;20152;-85
2022/04/12 11:58:30;;;;;;;;;;;21.60;63.10;;;;;;5058284;28;20378;-85
2022/04/12 12:00:56;;;;;;;3.42;1.60;;;21.50;62.00;;;;;;5064914;28;19936;-86
2022/04/12 12:03:23;;;;;;;5.10;1.50;;;21.60;61.90;;;;;;5047930;28;20024;-86
2022/04/12 12:05:49;;;;;;;5.32;1.48;;;;;;;;;;5059240;28;20025;-86
2022/04/12 12:08:20;;;;;;;4.05;1.33;;;21.80;60.80;;;;;;5061211;28;20089;-85
2022/04/12 12:10:46;;;;;;;3.67;1.40;;;;;;;;;;5061976;28;20023;-85
2022/04/12 12:13:13;;;;;;;4.03;1.30;;;;;;;;;;5062438;28;20200;-86
2022/04/12 12:15:39;;;;;;;4.25;1.50;;;;;;;;;;5062280;28;20024;-84
2022/04/12 12:18:07;;;;;;;4.88;1.30;;;21.90;59.50;;;;;;5045348;28;20107;-85
2022/04/12 12:20:37;;;;;;;3.15;1.50;;;21.80;59.50;;;;;;5054441;28;20021;-85
2022/04/12 12:23:06;;;;;;;;;;;21.90;59.30;;;;;;5057699;28;20095;-87
2022/04/12 12:25:41;;;;;;;3.35;1.42;;;22.10;59.40;;;;;;5061289;28;19913;-84
2022/04/12 12:28:16;;;;;;;2.45;1.30;;;22.30;60.60;;;;;;5043751;28;20572;-85
2022/04/12 12:30:43;;;;;;;3.55;1.50;;;22.40;58.80;;;;;;5062923;28;20033;-86
2022/04/12 12:33:09;;;;;;;4.20;1.17;;;;;;;;;;5063108;28;20024;-86
2022/04/12 12:35:39;;;;;;;3.25;1.35;;;;;;;;;;5045888;28;20025;-85
2022/04/12 12:38:11;;;;;;;2.47;1.33;;;22.30;58.40;;;;;;5065544;28;20059;-87
2022/04/12 12:40:38;;;;;;;3.70;1.60;;;22.20;59.20;;;;;;5058238;28;20040;-86
2022/04/12 12:43:06;;;;;;;2.55;1.40;;;22.20;58.40;;;;;;5042742;28;20032;-86
2022/04/12 12:45:35;;;;;;;4.82;1.45;;;22.00;57.80;;;;;;5041796;28;20108;-87
2022/04/12 12:48:01;;;;;;;4.20;1.50;;;;;;;;;;5042622;28;20146;-85
2022/04/12 12:50:31;;;;;;;5.60;1.40;;;22.00;57.40;;;;;;5065167;28;20040;-86
2022/04/12 12:53:08;;;;;;;6.57;1.38;;;22.00;57.40;;;;;;5046275;28;20025;-85
2022/04/12 12:55:41;;;;;;;2.92;1.30;;;22.00;58.20;;;;;;5044937;28;20093;-85
2022/04/12 12:58:09;;;;;;;7.40;1.50;;;22.00;56.80;;;;;;5048029;28;20025;-86
2022/04/12 13:00:35;;;;;;;2.65;1.40;;;22.00;56.70;;;;;;5035159;28;20033;-85
2022/04/12 13:03:01;;;;;;;2.70;1.17;;;;;;;;;;5064640;28;20035;-85
2022/04/12 13:05:28;;;;;;;3.33;1.30;;;;;;;;;;5056595;28;20219;-86
2022/04/12 13:07:56;;;;;;;2.33;1.15;;;22.20;56.50;;;;;;5038846;28;20033;-88
2022/04/12 13:10:22;;;;;;;2.13;1.00;;;;;;;;;;5053163;28;20259;-83
2022/04/12 13:12:47;;;;;;;5.32;1.50;;;22.20;56.50;;;;;;5056510;28;20376;-83
2022/04/12 13:15:14;;;;;;;3.42;1.52;;;22.30;56.40;;;;;;5059599;28;20021;-85
2022/04/12 13:17:40;;;;;;;3.15;1.30;;;22.20;56.40;;;;;;5059142;28;20295;-84
2022/04/12 13:20:09;;;;;;;4.80;1.27;;;22.40;56.80;;;;;;5058272;28;20032;-86
2022/04/12 13:22:36;;;;;;;2.70;1.35;;;;;;;;;;5056680;28;20092;-87
2022/04/12 13:25:02;;;;;;;2.90;1.40;;;;;;;;;;5053636;28;21128;-87
2022/04/12 13:27:29;;;;;;;2.55;1.40;;;;;;;;;;5040491;28;20143;-85
2022/04/12 13:29:55;;;;;;;4.07;1.63;;;;;;;;;;5058536;28;20020;-86